Latest Weather Observations for Davis*

IDT60801

Issued at 2:32 pm EST Thursday 29 September 2016 (issued every 30 minutes, with the page automatically refreshed every 10 minutes)

About weather observations | Map of weather stations | Latest weather observations for ANT | Other Formats
Station Details ID: 300000 Name: DAVIS Lat: -68.57 Lon: 77.97 Height: 18.0 m
Data from the previous 72 hours. | See also: Recent months at Davis*
Date/Time
EST
Temp
°C
App
Temp
°C
Dew
Point
°C
Rel
Hum
%
Delta-T
°C
Wind Press
QNH
hPa
Press
MSL
hPa
Rain since
9am
mm
Dir  Spd
km/h
Gust
km/h
Spd
kts
Gust
kts
29/02:30pm -7.7 -12.5 -21.1 33 - NNW 6 9 3 5 989.8 - -
29/02:00pm -8.3 -14.4 -21.7 33 - ESE 13 19 7 10 989.6 - -
29/01:30pm -9.2 -15.7 -21.5 36 - E 15 22 8 12 989.5 - -
29/01:00pm -9.1 -15.6 -22.4 33 - ESE 15 17 8 9 989.1 989.5 -
29/12:30pm -10.1 -17.0 -22.0 37 - ESE 17 20 9 11 988.9 - -
29/12:00pm -10.3 -18.2 -22.8 35 - ESE 22 28 12 15 988.6 - -
29/11:30am -10.8 -19.0 -22.9 36 - ESE 24 30 13 16 988.6 - -
29/11:00am -11.4 -18.7 -23.1 37 - ESE 19 24 10 13 988.4 - -
29/10:30am -11.5 -18.8 -23.2 37 - ESE 19 30 10 16 988.2 - -
29/10:00am -12.1 -18.6 -23.5 38 - ESE 15 19 8 10 988.1 988.5 -
29/09:30am -12.1 -19.4 -23.2 39 - ESE 19 24 10 13 987.9 - -
29/09:00am -12.4 -19.3 -24.0 37 - ESE 17 22 9 12 987.9 - -
29/08:30am -10.7 -18.0 -23.1 35 - E 19 26 10 14 987.6 - -
29/08:00am -11.0 -18.3 -22.8 37 - E 19 20 10 11 987.2 - -
29/07:30am -10.4 -17.9 -22.5 36 - E 20 28 11 15 987.1 - -
29/07:00am -10.4 -19.4 -21.9 38 - E 28 35 15 19 986.8 987.2 -
29/06:30am -9.7 -18.3 -21.9 36 - E 26 33 14 18 986.8 - -
29/06:00am -8.9 -17.1 -22.2 33 - E 24 33 13 18 986.7 - -
29/05:30am -8.2 -17.2 -21.9 32 - E 28 35 15 19 986.3 - -
29/05:00am -7.9 -17.8 -21.3 33 - E 33 43 18 23 986.1 - -
29/04:30am -7.3 -18.0 -21.1 32 - E 37 46 20 25 985.8 - -
29/04:00am -7.4 -17.7 -20.9 33 - E 35 46 19 25 985.6 985.9 -
29/03:30am -7.1 -17.0 -21.3 31 - E 33 39 18 21 985.5 - -
29/03:00am -7.0 -15.9 -20.9 32 - E 28 41 15 22 985.4 - -
29/02:30am -7.2 -15.4 -20.7 33 - E 24 43 13 23 985.2 - -
29/02:00am -7.5 -16.0 -19.6 37 - E 26 33 14 18 985.1 - -
29/01:30am -7.3 -16.2 -19.1 38 - E 28 35 15 19 984.8 - -
29/01:00am -7.0 -15.9 -19.2 37 - E 28 35 15 19 984.8 985.1 -
29/12:30am -7.0 -15.1 -19.2 37 - E 24 32 13 17 984.6 - -
29/12:00am -7.0 -14.7 -18.9 38 - E 22 30 12 16 984.6 - -
 
Date/Time
EST
Temp
°C
App
Temp
°C
Dew
Point
°C
Rel
Hum
%
Delta-T
°C
Wind Press
QNH
hPa
Press
MSL
hPa
Rain since
9am
mm
Dir  Spd
km/h
Gust
km/h
Spd
kts
Gust
kts
28/11:30pm -7.0 -14.7 -19.2 37 - E 22 28 12 15 984.7 - -
28/11:00pm -6.9 -13.3 -18.5 39 - E 15 24 8 13 985.0 - -
28/10:30pm -6.6 -14.7 -17.9 40 - E 24 32 13 17 985.0 - -
28/10:00pm -5.7 -15.9 -19.0 34 - E 35 44 19 24 984.6 984.9 -
28/09:30pm -4.7 -15.3 -19.2 31 - ENE 37 46 20 25 984.6 - -
28/09:13pm -4.5 -15.1 -19.0 31 - ENE 37 50 20 27 984.8 - -
28/09:00pm -4.5 -11.3 -19.0 31 - ENE 17 30 9 16 985.1 - -
28/08:30pm -4.4 -15.7 -18.2 33 - E 41 50 22 27 984.5 - -
28/08:00pm -4.8 -13.6 -17.5 36 - E 28 35 15 19 984.6 - -
28/07:30pm -3.8 -13.0 -18.0 32 - ENE 30 39 16 21 984.8 - -
28/07:00pm -4.6 -12.2 -15.5 42 - ESE 22 30 12 16 985.2 985.5 -
28/06:30pm -3.6 -11.6 -17.1 34 - E 24 30 13 16 985.4 - -
28/06:00pm -3.0 -11.9 -19.3 27 - E 28 35 15 19 985.5 - -
28/05:30pm -3.7 -11.3 -16.9 35 - ENE 22 30 12 16 985.8 - -
28/05:00pm -4.8 -13.9 -16.0 41 - E 30 39 16 21 986.1 - -
28/04:30pm -5.1 -14.6 -16.3 41 - E 32 44 17 24 986.5 - -
28/04:00pm -5.4 -15.0 -17.4 38 - E 32 41 17 22 986.7 987.1 -
28/03:30pm -5.3 -14.9 -18.0 36 - ENE 32 41 17 22 986.9 - -
28/03:00pm -5.5 -15.6 -17.5 38 - ENE 35 43 19 23 986.7 - -
28/02:30pm -6.5 -13.6 -18.1 39 - E 19 30 10 16 987.3 - -
28/02:00pm -6.3 -12.3 -19.2 35 - E 13 20 7 11 988.0 - -
28/01:30pm -6.1 -11.0 -20.4 31 - SW 7 13 4 7 988.3 - -
28/01:00pm -5.9 -10.3 -20.6 30 - ESE 4 17 2 9 988.3 988.7 -
28/12:30pm -7.6 -14.4 -19.1 39 - E 17 22 9 12 988.7 - -
28/12:00pm -7.4 -16.7 -19.2 38 - E 30 37 16 20 988.5 - -
28/11:30am -7.8 -15.9 -19.9 37 - ENE 24 33 13 18 988.9 - -
28/11:00am -9.4 -16.6 -19.1 45 - E 19 26 10 14 989.2 - -
28/10:30am -9.8 -17.1 -19.0 47 - E 20 24 11 13 989.4 - -
28/10:00am -7.2 -16.1 -20.0 35 - ENE 28 43 15 23 989.4 989.8 -
28/09:30am -9.3 -17.0 -19.3 44 - E 22 32 12 17 989.8 - -
28/09:00am -10.3 -14.3 -20.2 44 - E 2 9 1 5 990.3 - -
28/08:30am -9.5 -14.4 -20.5 40 - N 7 11 4 6 990.7 - -
28/08:00am -9.8 -18.3 -20.0 43 - E 26 33 14 18 990.7 - -
28/07:30am -9.7 -19.0 -20.7 40 - E 30 33 16 18 990.8 - -
28/07:00am -11.3 -17.4 -21.4 43 - E 13 22 7 12 991.4 991.8 -
28/06:30am -10.6 -16.3 -21.3 41 - SE 11 17 6 9 991.8 - -
28/06:00am -12.0 -16.8 -21.7 44 - S 6 11 3 6 992.2 - -
28/05:30am -12.9 -17.9 -22.6 44 - SSW 7 11 4 6 992.4 - -
28/05:00am -14.1 -18.9 -22.7 48 - ESE 6 11 3 6 992.8 - -
28/04:30am -12.1 -17.9 -22.9 40 - SSE 11 15 6 8 993.1 - -
28/04:00am -12.9 -17.9 -23.3 41 - ESE 7 9 4 5 993.6 994.0 -
28/03:30am -13.8 -18.8 -22.9 46 - SSE 7 11 4 6 994.0 - -
28/03:00am -14.3 -20.4 -22.9 48 - S 13 17 7 9 994.4 - -
28/02:30am -14.7 -20.5 -23.2 48 - SSE 11 17 6 9 995.0 - -
28/02:00am -18.3 -24.1 -25.1 55 - SSE 11 17 6 9 995.3 - -
28/01:30am -19.3 -25.5 -24.9 61 - S 13 15 7 8 996.0 - -
28/01:00am -17.9 -23.7 -25.5 51 - S 11 15 6 8 996.6 997.0 -
28/12:30am -18.3 -24.9 -25.7 52 - S 15 19 8 10 996.7 - -
28/12:00am -19.2 -25.0 -25.2 59 - S 11 13 6 7 997.2 - -
 
Date/Time
EST
Temp
°C
App
Temp
°C
Dew
Point
°C
Rel
Hum
%
Delta-T
°C
Wind Press
QNH
hPa
Press
MSL
hPa
Rain since
9am
mm
Dir  Spd
km/h
Gust
km/h
Spd
kts
Gust
kts
27/11:30pm -18.6 -24.4 -25.6 54 - S 11 15 6 8 997.7 - -
27/11:00pm -19.1 -23.2 -25.1 59 - ENE 2 9 1 5 998.5 - -
27/10:30pm -19.2 -23.7 -24.8 61 - N 4 9 2 5 998.9 - -
27/10:00pm -18.9 -23.8 -25.3 57 - NNW 6 9 3 5 999.4 999.7 -
27/09:30pm -17.7 -21.4 -25.6 50 - CALM 0 2 0 1 999.2 - -
27/09:00pm -17.6 -23.8 -25.7 49 - SE 13 15 7 8 999.4 - -
27/08:30pm -17.3 -23.1 -23.9 56 - SSE 11 15 6 8 999.7 - -
27/08:00pm -17.3 -22.2 -25.2 50 - SSW 6 7 3 4 1000.6 - -
27/07:30pm -17.8 -22.7 -25.7 50 - NW 6 7 3 4 1001.3 - -
27/07:00pm -17.2 -22.1 -26.0 46 - WSW 6 7 3 4 1001.4 1001.7 -
27/06:30pm -17.6 -22.1 -26.9 44 - W 4 6 2 3 1001.8 - -
27/06:00pm -18.7 -23.8 -26.3 51 - N 7 9 4 5 1002.0 - -
27/05:30pm -18.6 -23.5 -26.2 51 - N 6 11 3 6 1002.1 - -
27/05:00pm -19.1 -24.6 -26.0 54 - WSW 9 13 5 7 1002.9 - -
27/04:30pm -17.5 -24.1 -25.6 49 - SSW 15 19 8 10 1002.7 - -
27/04:00pm -17.9 -23.8 -26.9 45 - SSW 11 13 6 7 1002.8 1003.1 -
27/03:30pm -18.0 -23.5 -27.5 43 - S 9 13 5 7 1003.1 - -
27/03:00pm -19.1 -24.6 -28.0 45 - SSW 9 11 5 6 1003.5 - -
27/02:30pm -19.8 -24.9 -28.4 46 - WSW 7 11 4 6 1004.2 - -
27/02:00pm -20.9 -26.8 -28.8 49 - WNW 11 13 6 7 1004.0 - -
27/01:30pm -22.2 -27.2 -29.8 50 - W 6 7 3 4 1003.9 - -
27/01:00pm -22.0 -25.8 -30.0 48 - CALM 0 0 0 0 1003.7 1004.0 -
27/12:30pm -21.3 -25.1 -30.3 44 - CALM 0 0 0 0 1003.7 - -
27/12:00pm -22.1 -25.9 -30.5 46 - CALM 0 0 0 0 1003.6 - -
27/11:30am -22.7 -27.7 -30.4 49 - NNE 6 9 3 5 1003.6 - -
27/11:00am -22.3 -28.2 -30.7 46 - SE 11 13 6 7 1003.4 - -
27/10:30am -22.2 -28.5 -30.6 46 - SE 13 19 7 10 1003.5 - -
27/10:00am -21.4 -28.1 -30.4 44 - SE 15 15 8 8 1003.5 1003.7 -
27/09:30am -20.1 -24.3 -29.9 41 - SSE 2 6 1 3 1003.6 - -
27/09:00am -21.0 -26.0 -30.5 42 - S 6 7 3 4 1003.8 - -
27/08:30am -20.4 -25.6 -30.4 40 - S 7 9 4 5 1004.0 - -
27/08:00am -21.8 -28.1 -30.3 46 - SE 13 15 7 8 1003.9 - -
27/07:30am -21.0 -26.6 -30.7 41 - E 9 11 5 6 1003.7 - -
27/07:00am -21.0 -26.9 -30.5 42 - ESE 11 13 6 7 1003.3 1003.6 -
27/06:30am -21.9 -28.6 -30.1 47 - ESE 15 19 8 10 1003.2 - -
27/06:00am -21.4 -28.8 -29.9 46 - E 19 20 10 11 1002.9 - -
27/05:30am -22.1 -29.2 -30.3 47 - E 17 19 9 10 1003.0 - -
27/05:00am -22.3 -29.7 -29.8 51 - E 19 20 10 11 1003.0 - -
27/04:30am -22.8 -29.9 -29.7 53 - E 17 19 9 10 1002.7 - -
27/04:00am -22.5 -29.2 -29.2 54 - E 15 17 8 9 1002.3 1002.6 -
27/03:30am -22.9 -29.2 -28.1 62 - E 13 17 7 9 1002.3 - -
27/03:00am -22.5 -28.4 -27.4 64 - ESE 11 13 6 7 1002.2 - -
27/02:30am -22.2 -27.3 -26.5 68 - E 7 11 4 6 1002.3 - -
27/02:00am -22.3 -27.8 -26.2 71 - E 9 13 5 7 1002.0 - -
27/01:30am -22.0 -27.1 -25.7 72 - E 7 9 4 5 1001.9 - -
27/01:00am -21.7 -27.2 -25.5 71 - ESE 9 11 5 6 1001.5 1001.8 -
27/12:30am -21.5 -27.0 -25.5 70 - ESE 9 11 5 6 1001.3 - -
27/12:00am -21.3 -26.7 -25.0 72 - SSE 9 13 5 7 1001.0 - -
 
Date/Time
EST
Temp
°C
App
Temp
°C
Dew
Point
°C
Rel
Hum
%
Delta-T
°C
Wind Press
QNH
hPa
Press
MSL
hPa
Rain since
9am
mm
Dir  Spd
km/h
Gust
km/h
Spd
kts
Gust
kts
26/11:30pm -21.0 -25.9 -24.5 73 - S 6 9 3 5 1001.2 - -
26/11:00pm -21.0 -26.1 -24.5 73 - S 7 9 4 5 1001.2 - -
26/10:30pm -20.6 -25.7 -24.6 70 - SSW 7 9 4 5 1001.1 - -
26/10:00pm -20.5 -25.9 -24.4 71 - SSW 9 9 5 5 1000.7 1001.0 -
26/09:30pm -19.8 -24.8 -23.8 70 - SSW 7 9 4 5 1000.8 - -
26/09:00pm -19.1 -24.5 -23.2 70 - SSW 9 11 5 6 1000.5 - -
26/08:30pm -19.1 -23.9 -23.7 67 - W 6 7 3 4 1000.6 - -
26/08:00pm -18.8 -24.2 -23.4 67 - SSW 9 11 5 6 1000.3 - -
26/07:30pm -18.7 -23.7 -23.8 64 - WSW 7 9 4 5 1000.3 - -
26/07:00pm -19.0 -24.1 -24.8 60 - SW 7 9 4 5 1000.1 1000.4 -
26/06:30pm -18.9 -24.4 -26.7 50 - SW 9 13 5 7 999.9 - -
26/06:00pm -18.4 -24.3 -26.7 48 - SSW 11 15 6 8 999.7 - -

Other Formats:

Comma delimited format used in spreadsheet applications
http://www.bom.gov.au/fwo/IDT60803/IDT60803.89571.axf

JavaScript Object Notation format (JSON) in row-major order
http://www.bom.gov.au/fwo/IDT60803/IDT60803.89571.json